Time;durP1;ratioP1;P1;durP2;ratioP2;P2;SDS_P1;SDS_P2;PMS_P1;PMS_P2;Temp;Humidity;BMP_temperature;BMP_pressure;BME280_temperature;BME280_humidity;BME280_pressure;Samples;Min_cycle;Max_cycle;Signal;HPM_P1;HPM_P2
2023/09/14 00:05:06;;;;;;;;;;;;;;;13.47;85.24;102279.75;20846489;28;19932;-61
2023/09/14 00:15:27;;;;;;;;;;;;;;;13.55;85.20;102293.47;20862766;28;19945;-61
2023/09/14 00:25:49;;;;;;;;;;;;;;;13.47;85.54;102291.00;20866399;28;19936;-61
2023/09/14 00:36:11;;;;;;;;;;;;;;;13.44;85.47;102292.81;20842719;28;19931;-63
2023/09/14 00:46:32;;;;;;;;;;;;;;;13.44;85.76;102292.81;20840343;28;20097;-61
2023/09/14 00:56:54;;;;;;;;;;;;;;;13.46;86.54;102293.66;20848782;28;19925;-60
2023/09/14 01:07:17;;;;;;;;;;;;;;;13.43;85.91;102298.88;20850487;28;20341;-61
2023/09/14 01:17:57;;;;;;;;;;;;;;;13.36;85.30;102290.34;20835055;28;19925;-61
2023/09/14 01:28:18;;;;;;;;;;;;;;;13.22;85.43;102281.06;20862079;28;19964;-61
2023/09/14 01:38:40;;;;;;;;;;;;;;;13.22;85.08;102304.47;20842787;28;19936;-61
2023/09/14 01:49:02;;;;;;;;;;;;;;;13.19;84.94;102299.31;20846728;28;19925;-62
2023/09/14 01:59:24;;;;;;;;;;;;;;;13.20;86.45;102282.84;20850771;28;19929;-63
2023/09/14 02:09:45;;;;;;;;;;;;;;;13.29;87.17;102285.28;20841093;28;20559;-61
2023/09/14 02:20:08;;;;;;;;;;;;;;;13.45;84.23;102286.72;20837212;28;20483;-61
2023/09/14 02:30:30;;;;;;;;;;;;;;;13.51;83.89;102289.22;20812723;28;19971;-62
2023/09/14 02:40:51;;;;;;;;;;;;;;;13.61;84.71;102278.59;20831224;28;19932;-61
2023/09/14 02:51:13;;;;;;;;;;;;;;;13.67;85.33;102283.69;20838144;28;19931;-61
2023/09/14 03:01:34;;;;;;;;;;;;;;;13.66;84.03;102271.56;20850082;28;19963;-61
2023/09/14 03:11:56;;;;;;;;;;;;;;;13.74;86.21;102274.00;20840409;28;19963;-61
2023/09/14 03:22:17;;;;;;;;;;;;;;;13.75;86.70;102280.94;20836992;28;21861;-61
2023/09/14 03:32:39;;;;;;;;;;;;;;;13.80;88.25;102279.09;20838049;28;20134;-61
2023/09/14 03:43:00;;;;;;;;;;;;;;;13.85;89.00;102287.66;20845604;28;20479;-61
2023/09/14 03:53:22;;;;;;;;;;;;;;;13.90;88.16;102276.28;20854419;28;19949;-61
2023/09/14 04:03:44;;;;;;;;;;;;;;;13.94;86.70;102287.47;20850521;28;19933;-61
2023/09/14 04:14:06;;;;;;;;;;;;;;;14.04;88.66;102284.69;20846875;28;20002;-62
2023/09/14 04:24:27;;;;;;;;;;;;;;;14.03;86.96;102284.69;20841122;28;19936;-61
2023/09/14 04:34:48;;;;;;;;;;;;;;;13.99;86.99;102291.69;20857693;28;19933;-61
2023/09/14 04:45:10;;;;;;;;;;;;;;;14.09;87.07;102303.66;20866664;28;19929;-61
2023/09/14 04:55:31;;;;;;;;;;;;;;;14.06;86.95;102303.69;20862887;28;19929;-61
2023/09/14 05:05:54;;;;;;;;;;;;;;;13.99;87.20;102309.91;20839290;28;19933;-61
2023/09/14 05:16:15;;;;;;;;;;;;;;;14.09;86.70;102318.41;20846587;28;19925;-61
2023/09/14 05:26:37;;;;;;;;;;;;;;;14.12;87.00;102319.19;20854702;28;19929;-61
2023/09/14 05:36:58;;;;;;;;;;;;;;;14.24;87.91;102317.22;20849191;28;19933;-62
2023/09/14 05:47:20;;;;;;;;;;;;;;;14.31;86.35;102327.53;20842246;28;20032;-61
2023/09/14 05:57:41;;;;;;;;;;;;;;;14.42;87.00;102332.50;20836924;28;21506;-62
2023/09/14 06:08:03;;;;;;;;;;;;;;;14.51;85.39;102343.56;20837085;28;19929;-61
2023/09/14 06:18:24;;;;;;;;;;;;;;;14.64;85.59;102358.06;20836867;28;20308;-61
2023/09/14 06:28:46;;;;;;;;;;;;;;;14.71;84.30;102346.59;20834561;23;19945;-61
2023/09/14 06:39:08;;;;;;;;;;;;;;;14.83;83.27;102351.50;20821088;28;19958;-61
2023/09/14 06:49:30;;;;;;;;;;;;;;;14.97;83.88;102351.19;20841629;28;20403;-61
2023/09/14 06:59:51;;;;;;;;;;;;;;;15.08;83.06;102368.31;20837719;28;19928;-61
2023/09/14 07:10:13;;;;;;;;;;;;;;;15.16;83.02;102369.88;20840373;28;20213;-61
2023/09/14 07:20:34;;;;;;;;;;;;;;;15.25;81.67;102375.72;20844668;28;19999;-62
2023/09/14 07:30:56;;;;;;;;;;;;;;;15.29;81.61;102381.72;20847658;28;19932;-61
2023/09/14 07:41:18;;;;;;;;;;;;;;;15.38;82.16;102397.16;20839655;28;20284;-61
2023/09/14 07:51:40;;;;;;;;;;;;;;;15.45;81.80;102398.75;20847101;28;19949;-61
2023/09/14 08:02:01;;;;;;;;;;;;;;;15.58;81.95;102405.38;20859403;28;19932;-61
2023/09/14 08:12:22;;;;;;;;;;;;;;;15.67;82.52;102410.34;20842694;28;19925;-61
2023/09/14 08:22:44;;;;;;;;;;;;;;;15.82;82.57;102410.81;20848246;28;19935;-61
2023/09/14 08:33:06;;;;;;;;;;;;;;;16.03;82.50;102417.22;20842776;28;20023;-61
2023/09/14 08:43:27;;;;;;;;;;;;;;;16.20;79.31;102422.84;20849758;28;19994;-61
2023/09/14 08:53:49;;;;;;;;;;;;;;;16.40;77.14;102420.53;20841371;28;19935;-61
2023/09/14 09:04:16;;;;;;;;;;;;;;;16.68;79.06;102413.63;20841293;28;20549;-61
2023/09/14 09:14:38;;;;;;;;;;;;;;;16.83;77.46;102409.69;20849624;28;19932;-60
2023/09/14 09:25:03;;;;;;;;;;;;;;;16.98;76.35;102410.09;20861294;28;19925;-61
2023/09/14 09:35:25;;;;;;;;;;;;;;;17.12;75.91;102407.03;20871620;28;19943;-60
2023/09/14 09:45:48;;;;;;;;;;;;;;;17.33;74.39;102400.25;20856663;28;19924;-61
2023/09/14 09:56:18;;;;;;;;;;;;;;;17.53;72.07;102403.97;20844521;28;20050;-61
2023/09/14 10:06:40;;;;;;;;;;;;;;;17.70;71.60;102404.25;20852335;28;19926;-61
2023/09/14 10:17:06;;;;;;;;;;;;;;;17.63;70.54;102408.00;20847601;28;19932;-59
2023/09/14 10:27:28;;;;;;;;;;;;;;;17.62;68.94;102402.78;20851688;28;19938;-59
2023/09/14 10:37:50;;;;;;;;;;;;;;;17.66;69.50;102399.16;20866753;28;19925;-59
2023/09/14 10:48:16;;;;;;;;;;;;;;;17.69;69.58;102394.66;20850756;28;19925;-59
2023/09/14 10:58:41;;;;;;;6.60;0.90;;;;;;;17.88;70.20;102384.41;20853644;28;20217;-59
2023/09/14 11:09:05;;;;;;;;;;;;;;;18.09;68.08;102387.13;20880006;28;19967;-61
2023/09/14 11:19:37;;;;;;;;;;;;;;;18.09;68.97;102388.91;20871376;28;19932;-59
2023/09/14 11:30:15;;;;;;;;;;;;;;;18.16;70.23;102374.66;20880371;28;19921;-59
2023/09/14 11:40:38;;;;;;;;;;;;;;;18.22;68.41;102378.81;20845685;28;20515;-60
2023/09/14 11:51:02;;;;;;;;;;;;;;;18.25;66.33;102390.06;20847895;28;19921;-59
2023/09/14 12:01:27;;;;;;;;;;;;;;;18.27;70.45;102388.22;20845287;28;20269;-59
2023/09/14 12:11:49;;;;;;;;;;;;;;;18.32;69.11;102388.91;20835458;28;19921;-60
2023/09/14 12:22:10;;;;;;;;;;;;;;;18.36;68.04;102384.41;20870976;28;19936;-60
2023/09/14 12:32:32;;;;;;;;;;;;;;;18.49;68.26;102383.06;20878986;28;19925;-59
2023/09/14 12:42:54;;;;;;;;;;;;;;;18.44;68.20;102380.59;20862706;28;19920;-59
2023/09/14 12:53:16;;;;;;;;;;;;;;;18.45;67.16;102371.84;20872415;28;19925;-59
2023/09/14 13:03:38;;;;;;;;;;;;;;;18.50;64.08;102353.31;20862212;28;19931;-59
2023/09/14 13:14:00;;;;;;;;;;;;;;;18.38;64.54;102354.59;20876734;28;20257;-59
2023/09/14 13:24:24;;;;;;;;;;;;;;;18.43;69.16;102342.22;20834496;28;20261;-59
2023/09/14 13:34:45;;;;;;;;;;;;;;;18.51;67.12;102334.91;20847553;28;19979;-59
2023/09/14 13:45:07;;;;;;;;;;;;;;;18.91;65.03;102327.16;20850878;28;19970;-59
2023/09/14 13:55:28;;;;;;;;;;;;;;;19.08;66.63;102315.13;20868065;28;20024;-59
2023/09/14 14:05:50;;;;;;;;;;;;;;;19.15;65.67;102306.06;20852786;28;20027;-59
2023/09/14 14:16:12;;;;;;;;;;;;;;;18.91;65.71;102297.44;20854965;28;19929;-60
2023/09/14 14:26:34;;;;;;;;;;;;;;;18.82;66.48;102298.69;20846447;28;19931;-60
2023/09/14 14:36:55;;;;;;;;;;;;;;;18.73;66.30;102299.03;20847164;28;19931;-60
2023/09/14 14:47:18;;;;;;;;;;;;;;;18.51;66.50;102298.22;20835159;28;19990;-59
2023/09/14 14:57:40;;;;;;;;;;;;;;;18.74;67.20;102290.25;20857545;28;19971;-60
2023/09/14 15:08:02;;;;;;;;;;;;;;;19.05;63.95;102288.09;20852984;28;20274;-60
2023/09/14 15:18:26;;;;;;;;;;;;;;;19.21;65.24;102282.19;20855477;28;19925;-60
2023/09/14 15:28:49;;;;;;;;;;;;;;;19.13;64.78;102287.78;20834133;28;19982;-60
2023/09/14 15:39:11;;;;;;;;;;;;;;;19.17;64.91;102285.88;20842579;28;22449;-60
2023/09/14 15:49:32;;;;;;;;;;;;;;;19.18;64.97;102285.81;20835404;28;20396;-60
2023/09/14 15:59:54;;;;;;;;;;;;;;;19.48;65.17;102292.41;20836731;28;19928;-61
2023/09/14 16:10:15;;;;;;;;;;;;;;;19.64;65.61;102279.44;20861401;28;20848;-60
2023/09/14 16:20:37;;;;;;;;;;;;;;;19.94;64.24;102278.09;20858463;28;19921;-60
2023/09/14 16:30:58;;;;;;;;;;;;;;;19.86;63.14;102269.69;20865762;28;20863;-60
2023/09/14 16:41:20;;;;;;;;;;;;;;;19.81;61.50;102266.41;20859008;28;20057;-60
2023/09/14 16:51:41;;;;;;;;;;;;;;;19.42;65.94;102268.16;20845159;28;19924;-60
2023/09/14 17:02:04;;;;;;;;;;;;;;;19.01;66.90;102273.38;20848169;28;20281;-60
2023/09/14 17:12:26;;;;;;;;;;;;;;;18.71;68.35;102269.41;20866422;28;19935;-59
2023/09/14 17:22:47;;;;;;;;;;;;;;;18.41;68.24;102260.13;20857097;28;20047;-60
2023/09/14 17:33:09;;;;;;;;;;;;;;;18.16;69.22;102268.97;20857563;28;19927;-60
2023/09/14 17:43:30;;;;;;;;;;;;;;;17.94;69.01;102271.56;20859592;28;19939;-60
2023/09/14 17:53:52;;;;;;;;;;;;;;;17.74;70.24;102274.06;20840257;28;19929;-60
2023/09/14 18:04:13;;;;;;;;;;;;;;;17.52;69.46;102283.59;20863996;28;19943;-60
2023/09/14 18:14:35;;;;;;;;;;;;;;;17.34;70.92;102286.81;20842673;28;19921;-60
2023/09/14 18:24:56;;;;;;;;;;;;;;;17.18;71.38;102301.34;20853926;28;19935;-60
2023/09/14 18:35:18;;;;;;;;;;;;;;;17.06;71.73;102303.47;20843802;28;19931;-60
2023/09/14 18:45:41;;;;;;;;;;;;;;;16.91;72.38;102293.50;20868176;28;19932;-61
2023/09/14 18:56:03;;;;;;;;;;;;;;;16.79;72.76;102291.25;20867037;28;19927;-61
2023/09/14 19:06:25;;;;;;;;;;;;;;;16.69;72.56;102302.94;20843264;28;19921;-62
2023/09/14 19:16:47;;;;;;;;;;;;;;;16.54;72.63;102305.16;20844573;28;19968;-60
2023/09/14 19:27:10;;;;;;;;;;;;;;;16.39;73.00;102305.59;20850468;28;19924;-60
2023/09/14 19:37:31;;;;;;;;;;;;;;;16.26;73.53;102302.47;20853160;28;19946;-60
2023/09/14 19:47:53;;;;;;;;;;;;;;;16.15;74.12;102299.38;20875701;28;20406;-60
2023/09/14 19:58:16;;;;;;;;;;;;;;;16.02;74.26;102308.44;20858152;28;19972;-60
2023/09/14 20:08:37;;;;;;;;;;;;;;;15.89;74.24;102309.69;20845146;28;19951;-60
2023/09/14 20:18:58;;;;;;;;;;;;;;;15.77;74.84;102302.19;20852494;28;19929;-60
2023/09/14 20:29:20;;;;;;;;;;;;;;;15.68;74.68;102302.44;20845150;28;20034;-60
2023/09/14 20:39:41;;;;;;;;;;;;;;;15.57;75.05;102291.44;20851361;28;19925;-60
2023/09/14 20:50:04;;;;;;;;;;;;;;;15.47;75.76;102305.63;20859790;28;20093;-60
2023/09/14 21:00:26;;;;;;;;;;;;;;;15.38;76.46;102298.03;20858703;28;20404;-60
2023/09/14 21:10:47;;;;;;;;;;;;;;;15.19;76.46;102300.25;20855008;28;19921;-60
2023/09/14 21:21:09;;;;;;;;;;;;;;;15.08;77.17;102286.63;20854413;28;19921;-60
2023/09/14 21:31:31;;;;;;;;;;;;;;;14.99;77.07;102285.09;20858112;28;19925;-60
2023/09/14 21:41:53;;;;;;;;;;;;;;;14.94;77.18;102284.34;20845245;28;20676;-60
2023/09/14 21:52:15;;;;;;;;;;;;;;;14.82;77.19;102282.03;20793624;28;19981;-60
2023/09/14 22:02:36;;;;;;;;;;;;;;;14.74;77.49;102283.13;20833108;28;19929;-60
2023/09/14 22:12:59;;;;;;;;;;;;;;;14.65;78.29;102262.50;20830869;28;20023;-59
2023/09/14 22:23:20;;;;;;;;;;;;;;;14.59;78.50;102267.84;20846288;28;20368;-60
2023/09/14 22:33:45;;;;;;;;;;;;;;;14.49;78.28;102271.53;20831557;28;19928;-60
2023/09/14 22:44:08;;;;;;;;;;;;;;;14.42;78.09;102260.44;20836285;28;20083;-60
2023/09/14 22:54:29;;;;;;;;;;;;;;;14.33;78.80;102265.84;20833144;28;19921;-60
2023/09/14 23:04:51;;;;;;;;;;;;;;;14.18;78.99;102270.47;20831312;28;19924;-60
2023/09/14 23:15:16;;;;;;;;;;;;;;;14.10;79.53;102265.44;20837614;28;19920;-60
2023/09/14 23:25:43;;;;;;;;;;;;;;;14.03;79.98;102256.03;20851577;28;20011;-60
2023/09/14 23:36:08;;;;;;;;;;;;;;;14.00;79.87;102256.13;20850012;28;20321;-59
2023/09/14 23:46:30;;;;;;;;;;;;;;;13.92;80.12;102243.28;20830028;28;19995;-60
2023/09/14 23:56:51;;;;;;;;;;;;;;;13.89;80.22;102252.88;20831695;28;19920;-59
